createdAt,value
2018-05-06T11:00:25.191Z,45.8
2018-05-06T11:01:26.575Z,45.8
2018-05-06T11:02:48.055Z,45.9
2018-05-06T11:03:50.393Z,45.8
2018-05-06T11:05:11.839Z,45.8
2018-05-06T11:06:13.223Z,45.8
2018-05-06T11:07:34.719Z,46.5
2018-05-06T11:08:36.104Z,46.3
2018-05-06T11:09:57.584Z,46.0
2018-05-06T11:10:58.967Z,46.2
2018-05-06T11:12:20.448Z,46.1
2018-05-06T11:13:21.832Z,46.4
2018-05-06T11:14:43.328Z,46.4
2018-05-06T11:15:44.719Z,46.3
2018-05-06T11:17:06.201Z,46.3
2018-05-06T11:18:07.584Z,46.1
2018-05-06T11:19:29.064Z,46.1
2018-05-06T11:20:30.456Z,46.2
2018-05-06T11:21:51.944Z,46.3
2018-05-06T11:22:53.327Z,46.2
2018-05-06T11:24:14.799Z,46.1
2018-05-06T11:25:16.192Z,46.3
2018-05-06T11:26:37.671Z,46.3
2018-05-06T11:27:39.064Z,45.9
2018-05-06T11:29:00.559Z,46.1
2018-05-06T11:30:01.944Z,46.1
2018-05-06T11:31:23.424Z,46.2
2018-05-06T11:32:24.816Z,46.3
2018-05-06T11:33:46.320Z,46.4
2018-05-06T11:34:47.680Z,46.1
2018-05-06T11:36:09.232Z,46.2
2018-05-06T11:37:10.623Z,46.4
2018-05-06T11:38:32.107Z,45.9
2018-05-06T11:39:33.496Z,45.7
2018-05-06T11:40:55.015Z,45.8
2018-05-06T11:41:56.368Z,45.8
2018-05-06T11:43:17.867Z,45.9
2018-05-06T11:44:19.256Z,46.1
2018-05-06T11:45:40.736Z,46.1
2018-05-06T11:46:42.128Z,45.3
2018-05-06T11:48:03.624Z,45.3
2018-05-06T11:49:05.000Z,45.6
2018-05-06T11:50:26.488Z,45.7
2018-05-06T11:51:27.871Z,45.1
2018-05-06T11:52:49.352Z,45.1
2018-05-06T11:53:50.744Z,45.5
2018-05-06T11:55:12.224Z,45.9
2018-05-06T11:56:13.686Z,46.1
2018-05-06T11:57:35.112Z,46.1
2018-05-06T11:58:36.505Z,46.0
2018-05-06T11:59:57.984Z,45.6
2018-05-06T12:00:59.376Z,45.4
2018-05-06T12:02:20.872Z,45.6
2018-05-06T12:03:22.248Z,45.5
2018-05-06T12:04:43.744Z,45.7
2018-05-06T12:05:45.129Z,45.2
2018-05-06T12:07:06.600Z,45.2
2018-05-06T12:08:07.992Z,45.5
2018-05-06T12:09:29.474Z,45.4
2018-05-06T12:10:30.864Z,45.5
2018-05-06T12:11:52.368Z,45.2
2018-05-06T12:12:53.765Z,45.2
2018-05-06T12:14:15.241Z,45.3
2018-05-06T12:15:16.643Z,45.3
2018-05-06T12:16:38.105Z,45.4
2018-05-06T12:17:39.500Z,45.3
2018-05-06T12:19:00.984Z,45.4
2018-05-06T12:20:02.377Z,45.1
2018-05-06T12:21:23.857Z,45.3
2018-05-06T12:22:25.251Z,45.5
2018-05-06T12:23:46.728Z,45.6
2018-05-06T12:24:48.120Z,45.4
2018-05-06T12:26:09.609Z,45.3
2018-05-06T12:27:11.001Z,45.4
2018-05-06T12:28:32.480Z,45.5
2018-05-06T12:29:33.873Z,45.4
2018-05-06T12:30:55.353Z,45.1
2018-05-06T12:31:56.745Z,45.0
2018-05-06T12:33:18.242Z,45.5
2018-05-06T12:34:19.633Z,45.2
2018-05-06T12:35:41.105Z,45.1
2018-05-06T12:36:42.497Z,45.5
2018-05-06T12:38:03.981Z,45.5
2018-05-06T12:39:05.369Z,45.1
2018-05-06T12:40:26.858Z,45.2
2018-05-06T12:41:28.250Z,44.9
2018-05-06T12:42:49.722Z,45.4
2018-05-06T12:43:51.114Z,45.2
2018-05-06T12:45:12.586Z,45.3
2018-05-06T12:46:13.978Z,45.2
2018-05-06T12:47:35.477Z,45.1
2018-05-06T12:48:36.865Z,45.2
2018-05-06T12:49:58.377Z,45.2
2018-05-06T12:50:59.777Z,45.4
2018-05-06T12:52:21.266Z,44.9
2018-05-06T12:53:22.658Z,45.0
2018-05-06T12:54:44.154Z,45.2
2018-05-06T12:55:45.546Z,44.8
2018-05-06T12:57:07.028Z,45.1
2018-05-06T12:58:08.426Z,45.3
2018-05-06T12:59:29.898Z,44.9
2018-05-06T13:00:31.290Z,45.3
2018-05-06T13:01:52.786Z,44.6
2018-05-06T13:02:54.170Z,45.0
2018-05-06T13:04:15.650Z,44.9
2018-05-06T13:05:17.042Z,45.1
2018-05-06T13:06:38.523Z,45.0
2018-05-06T13:07:39.915Z,45.0
2018-05-06T13:09:01.403Z,45.3
2018-05-06T13:10:02.786Z,45.3
2018-05-06T13:11:24.276Z,45.1
2018-05-06T13:12:25.657Z,45.1
2018-05-06T13:13:47.138Z,45.1
2018-05-06T13:14:48.530Z,45.1
2018-05-06T13:16:10.018Z,45.1
2018-05-06T13:17:11.412Z,45.4
2018-05-06T13:18:32.890Z,45.3
2018-05-06T13:19:34.491Z,45.4
2018-05-06T13:20:55.989Z,45.1
2018-05-06T13:21:57.370Z,45.6
2018-05-06T13:23:18.866Z,45.1
2018-05-06T13:24:20.257Z,45.2
2018-05-06T13:25:41.739Z,45.0
2018-05-06T13:26:43.131Z,44.9
2018-05-06T13:28:04.618Z,44.8
2018-05-06T13:29:06.010Z,44.8
2018-05-06T13:30:27.514Z,44.9
2018-05-06T13:31:28.907Z,44.5
2018-05-06T13:32:50.389Z,45.0
2018-05-06T13:33:51.778Z,44.9
2018-05-06T13:35:13.269Z,44.5
2018-05-06T13:36:14.659Z,44.6
2018-05-06T13:37:36.162Z,44.5
2018-05-06T13:38:37.556Z,44.6
2018-05-06T13:39:59.035Z,44.5
2018-05-06T13:41:00.427Z,44.5
2018-05-06T13:42:21.906Z,44.6
2018-05-06T13:43:23.299Z,44.9
2018-05-06T13:44:44.787Z,45.1
2018-05-06T13:45:46.181Z,44.5
2018-05-06T13:47:07.659Z,44.5
2018-05-06T13:48:09.051Z,44.5
2018-05-06T13:49:30.532Z,45.0
2018-05-06T13:50:31.923Z,44.9
2018-05-06T13:51:53.427Z,45.0
2018-05-06T13:52:54.819Z,45.3
2018-05-06T13:54:16.370Z,44.8
2018-05-06T13:55:17.691Z,45.1
2018-05-06T13:56:39.167Z,45.0
2018-05-06T13:57:40.564Z,45.1
2018-05-06T13:59:02.051Z,45.0
2018-05-06T14:00:03.435Z,45.0
2018-05-06T14:01:24.935Z,45.1
2018-05-06T14:02:26.307Z,44.8
2018-05-06T14:03:47.788Z,44.8
2018-05-06T14:04:49.180Z,44.9
2018-05-06T14:06:10.676Z,44.9
2018-05-06T14:07:12.068Z,44.9
2018-05-06T14:08:33.549Z,44.8
2018-05-06T14:09:34.940Z,44.8
2018-05-06T14:10:56.420Z,44.8
2018-05-06T14:11:57.812Z,44.8
2018-05-06T14:13:19.300Z,44.6
2018-05-06T14:14:20.692Z,45.2
2018-05-06T14:15:42.250Z,44.7
2018-05-06T14:16:43.564Z,45.4
2018-05-06T14:18:05.044Z,45.2
2018-05-06T14:19:06.436Z,44.6
2018-05-06T14:20:27.940Z,44.7
2018-05-06T14:21:29.332Z,45.3
2018-05-06T14:22:50.812Z,44.8
2018-05-06T14:23:52.205Z,44.8
2018-05-06T14:25:13.685Z,44.9
2018-05-06T14:26:15.076Z,44.9
2018-05-06T14:27:36.579Z,44.6
2018-05-06T14:28:37.972Z,45.2
2018-05-06T14:29:59.456Z,44.6
2018-05-06T14:31:00.804Z,44.9
2018-05-06T14:32:22.284Z,44.9
2018-05-06T14:33:23.675Z,44.6
2018-05-06T14:34:45.172Z,45.3
2018-05-06T14:35:46.556Z,45.3
2018-05-06T14:37:08.044Z,45.4
2018-05-06T14:38:09.428Z,44.8
2018-05-06T14:39:30.992Z,45.3
2018-05-06T14:40:32.260Z,45.4
2018-05-06T14:41:53.764Z,45.3
2018-05-06T14:42:55.157Z,45.4
2018-05-06T14:44:16.636Z,45.3
2018-05-06T14:45:18.028Z,44.8
2018-05-06T14:46:39.508Z,45.3
2018-05-06T14:47:40.900Z,44.7
2018-05-06T14:49:02.388Z,45.3
2018-05-06T14:50:03.780Z,45.3
2018-05-06T14:51:25.268Z,45.4
2018-05-06T14:52:26.653Z,45.2
2018-05-06T14:53:48.132Z,45.3
2018-05-06T14:54:49.525Z,45.4
2018-05-06T14:56:11.021Z,45.4
2018-05-06T14:57:12.412Z,45.4
2018-05-06T14:58:33.892Z,45.3
2018-05-06T14:59:35.277Z,45.3
2018-05-06T15:00:56.756Z,45.3
2018-05-06T15:01:58.148Z,45.2
2018-05-06T15:03:19.653Z,45.2
2018-05-06T15:04:21.049Z,45.3
2018-05-06T15:05:42.527Z,45.3
2018-05-06T15:06:43.917Z,45.2
2018-05-06T15:08:05.405Z,45.2
2018-05-06T15:09:06.789Z,45.0
2018-05-06T15:10:28.294Z,45.2
2018-05-06T15:11:29.662Z,45.2
2018-05-06T15:12:52.309Z,45.1
2018-05-06T15:13:53.900Z,45.2
2018-05-06T15:15:15.373Z,45.2
2018-05-06T15:16:16.765Z,45.2
2018-05-06T15:17:38.269Z,45.5
2018-05-06T15:18:39.660Z,45.0
2018-05-06T15:20:01.141Z,45.2
2018-05-06T15:21:02.533Z,45.2
2018-05-06T15:22:24.013Z,45.5
2018-05-06T15:23:25.409Z,45.4
2018-05-06T15:24:46.901Z,45.5
2018-05-06T15:25:48.303Z,45.5
2018-05-06T15:27:09.777Z,46.1
2018-05-06T15:28:11.168Z,45.6
2018-05-06T15:29:32.646Z,45.8
2018-05-06T15:30:34.038Z,45.5
2018-05-06T15:31:55.542Z,45.7
2018-05-06T15:32:56.933Z,46.0
2018-05-06T15:34:18.413Z,46.1
2018-05-06T15:35:19.806Z,46.2
2018-05-06T15:36:41.285Z,46.1
2018-05-06T15:37:42.678Z,45.9
2018-05-06T15:39:04.707Z,46.0
2018-05-06T15:40:06.104Z,45.6
2018-05-06T15:41:27.582Z,46.0
2018-05-06T15:42:28.974Z,46.1
2018-05-06T15:43:50.462Z,46.0
2018-05-06T15:44:51.856Z,45.8
2018-05-06T15:46:13.350Z,45.8
2018-05-06T15:47:14.741Z,46.0
2018-05-06T15:48:36.222Z,46.0
2018-05-06T15:49:37.614Z,46.0
2018-05-06T15:50:59.093Z,46.2
2018-05-06T15:52:00.487Z,46.0
2018-05-06T15:53:21.974Z,46.0
2018-05-06T15:54:23.358Z,45.8
2018-05-06T15:55:44.839Z,45.7
2018-05-06T15:56:46.231Z,46.1
2018-05-06T15:58:07.711Z,45.7
2018-05-06T15:59:09.107Z,45.5
2018-05-06T16:00:30.590Z,45.7
2018-05-06T16:01:31.974Z,45.6
2018-05-06T16:02:53.457Z,45.8
2018-05-06T16:03:54.846Z,46.1
2018-05-06T16:05:16.326Z,45.6
2018-05-06T16:06:17.719Z,46.1
2018-05-06T16:07:39.214Z,45.6
2018-05-06T16:08:40.607Z,46.1
2018-05-06T16:10:02.088Z,46.1
2018-05-06T16:11:03.479Z,46.1
2018-05-06T16:12:24.959Z,46.1
2018-05-06T16:13:26.350Z,46.0
2018-05-06T16:14:47.847Z,46.1
2018-05-06T16:15:49.242Z,45.7
2018-05-06T16:17:10.719Z,45.6
2018-05-06T16:18:12.110Z,46.1
2018-05-06T16:19:33.583Z,45.8
2018-05-06T16:20:34.976Z,45.6
2018-05-06T16:21:56.479Z,46.0
2018-05-06T16:22:57.871Z,45.8
2018-05-06T16:24:19.351Z,45.8
2018-05-06T16:25:20.743Z,45.5
2018-05-06T16:26:42.281Z,45.7
2018-05-06T16:27:43.616Z,45.8
2018-05-06T16:29:05.223Z,45.7
2018-05-06T16:30:06.615Z,45.7
2018-05-06T16:31:28.095Z,45.7
2018-05-06T16:32:29.493Z,45.5
2018-05-06T16:33:50.969Z,45.8
2018-05-06T16:34:52.359Z,46.2
2018-05-06T16:36:13.850Z,46.1
2018-05-06T16:37:15.232Z,45.7
2018-05-06T16:38:36.711Z,45.7
2018-05-06T16:39:38.104Z,46.0
2018-05-06T16:40:59.583Z,46.1
2018-05-06T16:42:00.976Z,45.9
2018-05-06T16:43:22.479Z,46.1
2018-05-06T16:44:23.872Z,46.1
2018-05-06T16:45:45.417Z,46.1
2018-05-06T16:46:46.751Z,46.0
2018-05-06T16:48:08.232Z,46.1
2018-05-06T16:49:09.624Z,46.0
2018-05-06T16:50:31.219Z,46.0
2018-05-06T16:51:32.608Z,45.8
2018-05-06T16:52:54.088Z,45.8
2018-05-06T16:53:55.479Z,45.9
2018-05-06T16:55:16.968Z,45.8
2018-05-06T16:56:18.352Z,45.8
2018-05-06T16:57:39.848Z,45.8
2018-05-06T16:58:41.233Z,45.8
2018-05-06T17:00:02.712Z,45.7
2018-05-06T17:01:04.104Z,45.6
2018-05-06T17:02:25.575Z,45.9
2018-05-06T17:03:26.968Z,45.8
2018-05-06T17:04:48.472Z,45.8
2018-05-06T17:05:49.864Z,45.9
2018-05-06T17:07:11.344Z,45.9
2018-05-06T17:08:12.736Z,45.8
2018-05-06T17:09:34.208Z,46.3
2018-05-06T17:10:35.600Z,45.9
2018-05-06T17:11:57.107Z,45.9
2018-05-06T17:12:58.496Z,46.5
2018-05-06T17:14:19.977Z,45.7
2018-05-06T17:15:21.368Z,45.7
2018-05-06T17:16:42.848Z,46.3
2018-05-06T17:17:44.248Z,45.9
2018-05-06T17:19:05.729Z,46.3
2018-05-06T17:20:07.120Z,46.3
2018-05-06T17:21:28.609Z,46.2
2018-05-06T17:22:29.993Z,46.1
2018-05-06T17:23:51.474Z,46.1
2018-05-06T17:24:52.864Z,46.3
2018-05-06T17:26:14.352Z,46.2
2018-05-06T17:27:15.736Z,46.3
2018-05-06T17:28:37.208Z,46.1
2018-05-06T17:29:38.601Z,46.2
2018-05-06T17:31:00.081Z,46.3
2018-05-06T17:32:01.476Z,46.3
2018-05-06T17:33:22.962Z,45.9
2018-05-06T17:34:24.345Z,45.9
2018-05-06T17:35:45.824Z,46.1
2018-05-06T17:36:47.217Z,45.9
2018-05-06T17:38:08.696Z,45.9
2018-05-06T17:39:10.088Z,46.1
2018-05-06T17:40:31.578Z,46.2
2018-05-06T17:41:32.968Z,46.4
2018-05-06T17:42:54.448Z,46.2
2018-05-06T17:43:55.840Z,46.4
2018-05-06T17:45:17.312Z,46.2
2018-05-06T17:46:18.705Z,46.2
2018-05-06T17:47:40.192Z,46.4
2018-05-06T17:48:41.576Z,46.6
2018-05-06T17:50:03.092Z,46.8
2018-05-06T17:51:04.448Z,46.5
2018-05-06T17:52:25.928Z,46.7
2018-05-06T17:53:27.325Z,46.6
2018-05-06T17:54:48.809Z,46.6
2018-05-06T17:55:50.236Z,46.5
2018-05-06T17:57:11.688Z,46.6
2018-05-06T17:58:13.080Z,46.3
2018-05-06T17:59:34.560Z,46.4
2018-05-06T18:00:35.947Z,46.4
2018-05-06T18:01:57.441Z,46.7
2018-05-06T18:02:58.825Z,46.5
2018-05-06T18:04:20.304Z,47.0
2018-05-06T18:05:21.698Z,46.6
2018-05-06T18:06:43.177Z,46.4
2018-05-06T18:07:44.569Z,46.5
2018-05-06T18:09:06.065Z,46.6
2018-05-06T18:10:07.457Z,46.7
2018-05-06T18:11:28.937Z,46.6
2018-05-06T18:12:30.331Z,46.6
2018-05-06T18:13:51.809Z,46.6
2018-05-06T18:14:53.202Z,46.7
2018-05-06T18:16:14.690Z,46.6
2018-05-06T18:17:16.073Z,46.4
2018-05-06T18:18:37.553Z,46.6
2018-05-06T18:19:38.945Z,46.8
2018-05-06T18:21:00.425Z,46.6
2018-05-06T18:22:01.849Z,46.7
2018-05-06T18:23:23.337Z,46.7
2018-05-06T18:24:24.729Z,46.7
2018-05-06T18:25:46.209Z,46.5
2018-05-06T18:26:47.601Z,46.8
2018-05-06T18:28:09.082Z,46.6
2018-05-06T18:29:10.473Z,46.5
2018-05-06T18:30:31.961Z,46.5
2018-05-06T18:31:33.345Z,46.6
2018-05-06T18:32:54.833Z,46.7
2018-05-06T18:33:56.217Z,46.8
2018-05-06T18:35:17.689Z,46.6
2018-05-06T18:36:19.157Z,46.8
2018-05-06T18:37:40.578Z,46.8
2018-05-06T18:38:41.962Z,46.6
2018-05-06T18:40:03.437Z,46.9
2018-05-06T18:41:04.826Z,46.5
2018-05-06T18:42:26.306Z,46.9
2018-05-06T18:43:27.698Z,47.0
2018-05-06T18:44:49.185Z,46.8
2018-05-06T18:45:50.577Z,46.9
2018-05-06T18:47:12.060Z,46.9
2018-05-06T18:48:13.474Z,46.7
2018-05-06T18:49:34.956Z,47.0
2018-05-06T18:50:36.346Z,46.5
2018-05-06T18:51:57.840Z,47.6
2018-05-06T18:52:59.218Z,47.3
2018-05-06T18:54:20.698Z,47.4
2018-05-06T18:55:22.082Z,47.4
2018-05-06T18:56:43.555Z,47.4
2018-05-06T18:57:44.946Z,47.3
2018-05-06T18:59:06.434Z,47.6
2018-05-06T19:00:07.819Z,47.4
2018-05-06T19:01:29.290Z,47.5
2018-05-06T19:02:30.684Z,47.4
2018-05-06T19:03:52.155Z,47.4
2018-05-06T19:04:53.550Z,47.4
2018-05-06T19:06:15.035Z,47.4
2018-05-06T19:07:16.419Z,47.4
2018-05-06T19:08:37.900Z,47.2
2018-05-06T19:09:39.283Z,47.4
2018-05-06T19:11:00.763Z,47.4
2018-05-06T19:12:02.163Z,47.4
2018-05-06T19:13:23.643Z,47.4
2018-05-06T19:14:25.028Z,47.4
2018-05-06T19:15:46.507Z,47.2
2018-05-06T19:16:47.891Z,47.6
2018-05-06T19:18:09.355Z,47.5
2018-05-06T19:19:10.755Z,47.6
2018-05-06T19:20:32.251Z,47.2
2018-05-06T19:21:33.635Z,47.2
2018-05-06T19:22:55.116Z,47.6
2018-05-06T19:23:56.499Z,47.3
2018-05-06T19:25:17.971Z,47.6
2018-05-06T19:26:19.355Z,47.5
2018-05-06T19:27:40.843Z,47.5
2018-05-06T19:28:42.228Z,47.5
2018-05-06T19:30:03.700Z,47.5
2018-05-06T19:31:05.092Z,47.6
2018-05-06T19:32:26.564Z,47.7
2018-05-06T19:33:27.947Z,47.5
2018-05-06T19:34:49.452Z,47.3
2018-05-06T19:35:50.846Z,47.1
2018-05-06T19:37:12.316Z,47.2
2018-05-06T19:38:13.700Z,47.3
2018-05-06T19:39:35.184Z,47.7
2018-05-06T19:40:36.564Z,47.8
2018-05-06T19:41:58.052Z,47.6
2018-05-06T19:42:59.444Z,47.6
2018-05-06T19:44:20.908Z,47.7
2018-05-06T19:45:22.300Z,47.6
2018-05-06T19:46:43.772Z,47.5
2018-05-06T19:47:45.156Z,47.7
2018-05-06T19:49:06.652Z,47.6
2018-05-06T19:50:08.035Z,47.7
2018-05-06T19:51:29.508Z,47.6
2018-05-06T19:52:30.901Z,47.7
2018-05-06T19:53:52.364Z,47.6
2018-05-06T19:54:53.756Z,47.6
2018-05-06T19:56:15.260Z,47.5
2018-05-06T19:57:16.644Z,47.5
2018-05-06T19:58:38.156Z,47.6
2018-05-06T19:59:39.540Z,47.7
2018-05-06T20:01:01.021Z,47.6
2018-05-06T20:02:02.405Z,47.6
2018-05-06T20:03:23.901Z,47.7
2018-05-06T20:04:25.278Z,47.3
2018-05-06T20:05:46.748Z,47.5
2018-05-06T20:06:48.140Z,47.7
2018-05-06T20:08:09.614Z,47.4
2018-05-06T20:09:10.997Z,47.7
2018-05-06T20:10:32.495Z,47.7
2018-05-06T20:11:33.875Z,47.9
2018-05-06T20:12:55.428Z,47.5
2018-05-06T20:13:56.692Z,47.5
2018-05-06T20:15:18.189Z,47.5
2018-05-06T20:16:19.607Z,47.7
2018-05-06T20:17:41.061Z,47.7
2018-05-06T20:18:42.445Z,48.0
2018-05-06T20:20:03.920Z,47.8
2018-05-06T20:21:05.309Z,47.7
2018-05-06T20:22:26.780Z,47.8
2018-05-06T20:23:28.165Z,48.0
2018-05-06T20:24:49.653Z,47.7
2018-05-06T20:25:51.037Z,47.8
2018-05-06T20:27:12.525Z,48.0
2018-05-06T20:28:13.908Z,47.8
2018-05-06T20:29:35.381Z,48.0
2018-05-06T20:30:36.773Z,48.2
2018-05-06T20:31:58.276Z,47.8
2018-05-06T20:32:59.660Z,47.8
2018-05-06T20:34:21.133Z,47.8
2018-05-06T20:35:22.527Z,48.0
2018-05-06T20:36:43.997Z,47.7
2018-05-06T20:37:45.390Z,47.8
2018-05-06T20:39:06.885Z,48.1
2018-05-06T20:40:08.269Z,48.2
2018-05-06T20:41:29.749Z,48.0
2018-05-06T20:42:31.132Z,47.8
2018-05-06T20:43:52.672Z,47.9
2018-05-06T20:44:53.998Z,47.8
2018-05-06T20:46:15.493Z,48.2
2018-05-06T20:47:16.878Z,47.9
2018-05-06T20:48:38.349Z,48.1
2018-05-06T20:49:39.733Z,48.3
2018-05-06T20:51:01.213Z,47.8
2018-05-06T20:52:02.597Z,47.9
2018-05-06T20:53:24.085Z,48.2
2018-05-06T20:54:25.470Z,48.3
2018-05-06T20:55:46.949Z,48.3
2018-05-06T20:56:48.333Z,48.7
2018-05-06T20:58:09.805Z,48.8
2018-05-06T20:59:11.197Z,48.7
2018-05-06T21:00:32.693Z,48.8
2018-05-06T21:01:34.078Z,48.6
2018-05-06T21:02:55.550Z,48.7
2018-05-06T21:03:56.981Z,48.6
2018-05-06T21:05:18.523Z,48.6
2018-05-06T21:06:19.829Z,48.6
2018-05-06T21:07:41.326Z,48.5
2018-05-06T21:08:42.709Z,48.3
2018-05-06T21:10:04.182Z,48.6
2018-05-06T21:11:05.566Z,48.5
2018-05-06T21:12:27.058Z,48.2
2018-05-06T21:13:28.460Z,48.3
2018-05-06T21:14:49.934Z,49.0
2018-05-06T21:15:51.317Z,49.1
2018-05-06T21:17:12.790Z,49.2
2018-05-06T21:18:14.185Z,48.8
2018-05-06T21:19:35.654Z,48.4
2018-05-06T21:20:37.055Z,48.8
2018-05-06T21:21:58.534Z,48.8
2018-05-06T21:22:59.920Z,48.8
2018-05-06T21:24:21.398Z,48.7
2018-05-06T21:25:22.782Z,48.6
2018-05-06T21:26:44.262Z,49.0
2018-05-06T21:27:45.661Z,48.9
2018-05-06T21:29:07.118Z,48.7
2018-05-06T21:30:08.502Z,48.9
2018-05-06T21:31:29.982Z,49.0
2018-05-06T21:32:31.374Z,49.1
2018-05-06T21:33:52.846Z,48.8
2018-05-06T21:34:54.230Z,49.0
2018-05-06T21:36:15.727Z,48.7
2018-05-06T21:37:17.103Z,48.4
2018-05-06T21:38:38.590Z,48.6
2018-05-06T21:39:40.008Z,48.8
2018-05-06T21:41:01.455Z,48.4
2018-05-06T21:42:02.842Z,48.6
2018-05-06T21:43:24.410Z,48.6
2018-05-06T21:44:25.679Z,48.7
2018-05-06T21:45:47.159Z,48.8
2018-05-06T21:46:48.542Z,48.7
2018-05-06T21:48:10.023Z,48.7
2018-05-06T21:49:11.407Z,48.5
2018-05-06T21:50:32.903Z,48.7
2018-05-06T21:51:34.287Z,48.6
2018-05-06T21:52:55.847Z,48.5
2018-05-06T21:53:57.111Z,48.4
2018-05-06T21:55:18.584Z,48.7
2018-05-06T21:56:19.967Z,48.7
2018-05-06T21:57:41.463Z,48.7
2018-05-06T21:58:42.847Z,48.8
2018-05-06T22:00:04.328Z,48.5
2018-05-06T22:01:05.711Z,48.7
2018-05-06T22:02:27.184Z,48.7
2018-05-06T22:03:28.567Z,48.6
2018-05-06T22:04:50.071Z,48.6
2018-05-06T22:05:51.455Z,48.4
2018-05-06T22:07:12.927Z,48.8
2018-05-06T22:08:14.316Z,48.6
2018-05-06T22:09:35.791Z,48.6
2018-05-06T22:10:37.175Z,48.3
2018-05-06T22:11:58.663Z,48.3
2018-05-06T22:13:00.047Z,47.8
2018-05-06T22:14:21.527Z,47.8
2018-05-06T22:15:22.911Z,47.9
2018-05-06T22:16:44.383Z,48.0
2018-05-06T22:17:45.777Z,47.9
2018-05-06T22:19:07.278Z,47.8
2018-05-06T22:20:08.663Z,47.7
2018-05-06T22:21:30.135Z,47.8
2018-05-06T22:22:31.527Z,47.8
2018-05-06T22:23:52.991Z,48.0
2018-05-06T22:24:54.384Z,47.7
2018-05-06T22:26:15.879Z,48.0
2018-05-06T22:27:17.263Z,47.7
2018-05-06T22:28:38.745Z,47.8
2018-05-06T22:29:40.127Z,48.0
2018-05-06T22:31:01.602Z,48.0
2018-05-06T22:32:03.009Z,48.1
2018-05-06T22:33:24.639Z,47.9
2018-05-06T22:34:26.024Z,47.7
2018-05-06T22:35:47.496Z,47.7
2018-05-06T22:36:48.880Z,47.8
2018-05-06T22:38:10.351Z,47.8
2018-05-06T22:39:11.743Z,48.0
2018-05-06T22:40:33.240Z,48.1
2018-05-06T22:41:34.640Z,47.8
2018-05-06T22:42:56.064Z,47.9
2018-05-06T22:43:57.448Z,47.8
2018-05-06T22:45:18.921Z,47.4
2018-05-06T22:46:20.304Z,47.3
2018-05-06T22:47:41.792Z,47.3
2018-05-06T22:48:43.175Z,47.5
2018-05-06T22:50:04.648Z,47.6
2018-05-06T22:51:06.032Z,47.6
2018-05-06T22:52:27.512Z,47.5
2018-05-06T22:53:28.896Z,47.6
2018-05-06T22:54:50.392Z,47.2
2018-05-06T22:55:51.780Z,47.8
2018-05-06T22:57:13.257Z,47.7
2018-05-06T22:58:14.640Z,47.6
2018-05-06T22:59:36.196Z,47.7
2018-05-06T23:00:37.473Z,47.5
2018-05-06T23:01:58.964Z,47.9
2018-05-06T23:03:00.345Z,47.7
2018-05-06T23:04:21.816Z,47.5
2018-05-06T23:05:23.208Z,47.7
2018-05-06T23:06:44.672Z,47.7
2018-05-06T23:07:46.056Z,47.7
2018-05-06T23:09:07.544Z,47.6
2018-05-06T23:10:08.920Z,47.6
2018-05-06T23:11:30.408Z,47.6
2018-05-06T23:12:31.792Z,47.6
2018-05-06T23:13:53.272Z,47.6
2018-05-06T23:14:54.656Z,47.6
2018-05-06T23:16:16.160Z,47.6
2018-05-06T23:17:17.576Z,47.7
2018-05-06T23:18:38.984Z,47.7
2018-05-06T23:19:40.368Z,47.6
2018-05-06T23:21:01.930Z,47.6
2018-05-06T23:22:03.201Z,47.6
2018-05-06T23:23:24.696Z,47.6
2018-05-06T23:24:26.081Z,47.7
2018-05-06T23:25:47.552Z,47.5
2018-05-06T23:26:48.937Z,47.7
2018-05-06T23:28:10.409Z,47.6
2018-05-06T23:29:11.796Z,47.6
2018-05-06T23:30:33.289Z,47.5
2018-05-06T23:31:34.673Z,47.5
2018-05-06T23:32:56.152Z,47.6
2018-05-06T23:33:57.536Z,47.6
2018-05-06T23:35:19.017Z,47.3
2018-05-06T23:36:20.403Z,47.3
2018-05-06T23:37:41.889Z,47.8
2018-05-06T23:38:43.273Z,47.7
2018-05-06T23:40:04.748Z,47.2
2018-05-06T23:41:06.137Z,47.5
2018-05-06T23:42:27.617Z,47.5
2018-05-06T23:43:29.002Z,47.6
2018-05-06T23:44:50.497Z,47.5
2018-05-06T23:45:51.881Z,47.5
2018-05-06T23:47:13.361Z,47.5
2018-05-06T23:48:14.746Z,47.2
2018-05-06T23:49:36.300Z,47.6
2018-05-06T23:50:37.609Z,47.4
2018-05-06T23:51:59.101Z,47.7
2018-05-06T23:53:00.481Z,47.6
2018-05-06T23:54:21.955Z,47.7
2018-05-06T23:55:23.337Z,47.8
2018-05-06T23:56:44.810Z,47.8
2018-05-06T23:57:46.193Z,48.0
2018-05-06T23:59:07.717Z,47.8
